Time;durP1;ratioP1;P1;durP2;ratioP2;P2;SDS_P1;SDS_P2;PMS_P1;PMS_P2;Temp;Humidity;BMP_temperature;BMP_pressure;BME280_temperature;BME280_humidity;BME280_pressure;Samples;Min_cycle;Max_cycle;Signal;HPM_P1;HPM_P2
2023/11/15 00:01:47;;;;;;;3.40;0.80;;;12.00;1.00;;;;;;4978259;28;20392;-84
2023/11/15 00:04:13;;;;;;;1.27;0.53;;;12.10;1.00;;;;;;4959734;28;20399;-84
2023/11/15 00:06:39;;;;;;;1.40;0.70;;;11.20;1.00;;;;;;4977435;28;20881;-85
2023/11/15 00:09:06;;;;;;;1.85;0.60;;;12.00;1.00;;;;;;4976324;28;20380;-84
2023/11/15 00:11:33;;;;;;;2.70;0.70;;;11.50;1.00;;;;;;4963252;28;20398;-84
2023/11/15 00:13:59;;;;;;;2.20;0.70;;;14.00;1.00;;;;;;4966165;28;20392;-85
2023/11/15 00:16:25;;;;;;;0.82;0.50;;;13.50;1.00;;;;;;4981762;28;20806;-84
2023/11/15 00:18:50;;;;;;;1.30;0.63;;;12.00;1.00;;;;;;4963508;28;20905;-84
2023/11/15 00:21:16;;;;;;;0.50;0.40;;;13.20;1.00;;;;;;4963313;28;20401;-85
2023/11/15 00:23:41;;;;;;;1.50;0.60;;;11.00;1.00;;;;;;4965274;28;20396;-84
2023/11/15 00:26:07;;;;;;;2.10;0.60;;;11.90;1.00;;;;;;4986270;28;20410;-79
2023/11/15 00:28:33;;;;;;;1.57;0.70;;;12.00;1.00;;;;;;4989358;28;20396;-83
2023/11/15 00:30:58;;;;;;;2.90;0.50;;;11.80;1.00;;;;;;4966196;28;20447;-84
2023/11/15 00:33:24;;;;;;;1.00;0.60;;;11.80;1.00;;;;;;4964009;28;20404;-85
2023/11/15 00:35:49;;;;;;;1.90;0.70;;;11.80;1.00;;;;;;4978970;28;20419;-85
2023/11/15 00:38:15;;;;;;;1.77;0.60;;;11.90;1.00;;;;;;4979750;28;20397;-83
2023/11/15 00:40:41;;;;;;;1.90;0.70;;;13.10;1.00;;;;;;4963598;28;20399;-84
2023/11/15 00:43:07;;;;;;;1.50;0.90;;;11.60;1.00;;;;;;4980602;28;20464;-82
2023/11/15 00:45:33;;;;;;;1.70;0.63;;;11.40;1.00;;;;;;4963081;28;20404;-84
2023/11/15 00:47:59;;;;;;;1.60;0.67;;;10.80;1.00;;;;;;4963103;28;20399;-84
2023/11/15 00:50:24;;;;;;;1.03;0.70;;;11.50;1.00;;;;;;4980159;28;20447;-84
2023/11/15 00:52:50;;;;;;;1.17;0.60;;;10.70;1.00;;;;;;4963121;28;20400;-82
2023/11/15 00:55:16;;;;;;;3.60;0.70;;;10.80;1.00;;;;;;4962007;28;20825;-84
2023/11/15 00:57:44;;;;;;;2.60;0.80;;;11.70;1.00;;;;;;4979540;28;20388;-84
2023/11/15 01:00:37;;;;;;;2.00;0.70;;;11.70;1.00;;;;;;4960084;28;20396;-84
2023/11/15 01:02:59;;;;;;;1.67;0.60;;;11.70;1.00;;;;;;4980020;28;20426;-84
2023/11/15 01:05:24;;;;;;;3.10;0.70;;;11.70;1.00;;;;;;4963181;28;20463;-83
2023/11/15 01:07:50;;;;;;;2.40;0.73;;;11.80;1.00;;;;;;4979550;28;20388;-83
2023/11/15 01:10:18;;;;;;;3.35;0.90;;;11.60;1.00;;;;;;4979118;28;20392;-83
2023/11/15 01:12:44;;;;;;;1.02;0.60;;;11.70;1.00;;;;;;4978080;28;20388;-82
2023/11/15 01:15:11;;;;;;;3.17;0.70;;;11.60;1.00;;;;;;4979861;28;20468;-81
2023/11/15 01:17:37;;;;;;;2.90;0.77;;;11.50;1.00;;;;;;4980604;28;20400;-82
2023/11/15 01:20:05;;;;;;;2.90;0.63;;;11.90;1.00;;;;;;4961841;28;20415;-83
2023/11/15 01:22:30;;;;;;;2.00;0.60;;;11.60;1.00;;;;;;4957677;28;20879;-81
2023/11/15 01:24:56;;;;;;;3.33;0.90;;;11.70;1.00;;;;;;4975126;28;20392;-83
2023/11/15 01:27:21;;;;;;;3.03;0.67;;;11.60;1.00;;;;;;4975975;28;20384;-82
2023/11/15 01:29:47;;;;;;;2.30;0.67;;;11.50;1.00;;;;;;4976216;28;20962;-83
2023/11/15 01:32:12;;;;;;;1.80;0.80;;;11.10;1.00;;;;;;4976958;28;20419;-85
2023/11/15 01:34:38;;;;;;;2.28;0.98;;;11.60;1.00;;;;;;4966614;28;20966;-85
2023/11/15 01:37:04;;;;;;;1.75;0.70;;;11.50;1.00;;;;;;4966655;28;20403;-84
2023/11/15 01:39:30;;;;;;;3.17;1.00;;;11.20;1.00;;;;;;4984290;28;20488;-83
2023/11/15 01:41:56;;;;;;;2.78;0.80;;;11.40;1.00;;;;;;4967313;28;20393;-85
2023/11/15 01:44:22;;;;;;;2.42;0.80;;;11.40;1.00;;;;;;4967102;28;20508;-84
2023/11/15 01:46:50;;;;;;;2.92;0.80;;;11.10;1.00;;;;;;4967615;28;20399;-84
2023/11/15 01:49:17;;;;;;;2.42;0.93;;;11.40;1.00;;;;;;4984326;28;20388;-83
2023/11/15 01:51:43;;;;;;;1.13;0.52;;;11.40;1.00;;;;;;4983275;28;20876;-85
2023/11/15 01:54:10;;;;;;;1.80;0.80;;;11.40;1.00;;;;;;4981903;28;20447;-83
2023/11/15 01:56:37;;;;;;;3.83;0.90;;;11.40;1.00;;;;;;4965662;28;20822;-84
2023/11/15 01:59:03;;;;;;;2.30;0.70;;;11.20;1.00;;;;;;4984436;28;20959;-84
2023/11/15 02:01:31;;;;;;;1.00;0.60;;;11.40;1.00;;;;;;4982181;28;20396;-86
2023/11/15 02:03:57;;;;;;;2.08;0.90;;;11.30;1.00;;;;;;4983851;28;20464;-84
2023/11/15 02:06:28;;;;;;;3.20;0.80;;;11.40;1.00;;;;;;4987790;28;20754;-81
2023/11/15 02:08:53;;;;;;;2.78;1.20;;;11.40;1.00;;;;;;4969985;28;20405;-84
2023/11/15 02:11:19;;;;;;;3.47;0.70;;;11.30;1.00;;;;;;4989279;28;20411;-84
2023/11/15 02:13:44;;;;;;;2.78;1.00;;;11.40;1.00;;;;;;4970374;28;20455;-83
2023/11/15 02:16:10;;;;;;;2.60;0.80;;;13.10;1.00;;;;;;4967664;28;20849;-83
2023/11/15 02:18:36;;;;;;;4.60;1.20;;;11.30;1.00;;;;;;4966486;28;20408;-85
2023/11/15 02:21:02;;;;;;;1.43;1.00;;;13.50;1.00;;;;;;4985278;28;20419;-82
2023/11/15 02:23:28;;;;;;;5.37;1.10;;;11.40;1.00;;;;;;4983213;28;20388;-84
2023/11/15 02:25:54;;;;;;;4.97;1.25;;;11.50;1.00;;;;;;4985598;28;20804;-84
2023/11/15 02:28:20;;;;;;;3.43;1.00;;;11.30;1.00;;;;;;4985042;28;20400;-84
2023/11/15 02:30:46;;;;;;;2.15;0.70;;;10.90;1.00;;;;;;4966671;28;20943;-83
2023/11/15 02:33:12;;;;;;;5.00;1.10;;;11.20;1.00;;;;;;4985761;28;20902;-82
2023/11/15 02:35:38;;;;;;;2.88;0.90;;;11.40;1.00;;;;;;4984422;28;20828;-84
2023/11/15 02:38:03;;;;;;;2.70;1.30;;;11.30;1.00;;;;;;4967729;28;20392;-84
2023/11/15 02:40:29;;;;;;;4.03;1.10;;;11.40;1.00;;;;;;4985489;28;20423;-83
2023/11/15 02:42:56;;;;;;;2.53;1.00;;;11.40;1.00;;;;;;4968030;28;20389;-85
2023/11/15 02:45:22;;;;;;;1.30;0.60;;;;;;;;;;4967016;28;20788;-83
2023/11/15 02:47:48;;;;;;;4.03;1.60;;;11.40;1.00;;;;;;4983505;28;20392;-85
2023/11/15 02:50:14;;;;;;;1.52;0.90;;;10.00;1.00;;;;;;4965713;28;20407;-85
2023/11/15 02:52:40;;;;;;;2.87;0.70;;;10.50;1.00;;;;;;4966336;28;20393;-84
2023/11/15 02:55:06;;;;;;;2.00;1.10;;;10.60;1.00;;;;;;4980523;28;20488;-84
2023/11/15 02:57:31;;;;;;;3.28;0.80;;;11.50;1.00;;;;;;4983885;28;20428;-84
2023/11/15 02:59:57;;;;;;;2.35;0.95;;;11.30;1.00;;;;;;4963540;28;20403;-83
2023/11/15 03:02:23;;;;;;;3.00;1.10;;;11.10;1.00;;;;;;4965402;28;20459;-85
2023/11/15 03:04:48;;;;;;;3.00;0.90;;;11.00;1.00;;;;;;4966457;28;20409;-85
2023/11/15 03:07:14;;;;;;;3.30;1.00;;;11.20;1.00;;;;;;4981991;28;20392;-85
2023/11/15 03:09:40;;;;;;;1.50;0.70;;;11.10;1.00;;;;;;4964967;28;20396;-85
2023/11/15 03:12:05;;;;;;;3.00;0.87;;;10.60;1.00;;;;;;4981659;28;20408;-84
2023/11/15 03:14:31;;;;;;;1.67;1.00;;;11.40;1.00;;;;;;4965760;28;20451;-85
2023/11/15 03:17:06;;;;;;;4.73;1.50;;;11.30;1.00;;;;;;4965612;28;20648;-85
2023/11/15 03:19:32;;;;;;;2.90;1.00;;;10.60;1.00;;;;;;4966056;28;20400;-84
2023/11/15 03:21:58;;;;;;;4.63;1.60;;;11.40;1.00;;;;;;4984101;28;20403;-83
2023/11/15 03:24:23;;;;;;;2.67;0.90;;;11.00;1.00;;;;;;4997026;28;20403;-82
2023/11/15 03:26:49;;;;;;;2.78;0.70;;;11.20;1.00;;;;;;4997154;28;20383;-82
2023/11/15 03:29:15;;;;;;;2.88;1.00;;;11.30;1.00;;;;;;4997083;28;20391;-84
2023/11/15 03:31:41;;;;;;;2.97;0.90;;;;;;;;;;4980982;28;20851;-83
2023/11/15 03:34:08;;;;;;;2.70;0.77;;;11.40;1.00;;;;;;4972423;28;20384;-85
2023/11/15 03:36:34;;;;;;;3.55;1.00;;;11.30;1.00;;;;;;4981050;28;20460;-86
2023/11/15 03:38:59;;;;;;;2.33;0.90;;;10.60;1.00;;;;;;4964482;28;20415;-85
2023/11/15 03:41:25;;;;;;;2.00;0.93;;;11.30;1.00;;;;;;4979845;28;20416;-86
2023/11/15 03:43:51;;;;;;;2.35;0.80;;;11.30;1.00;;;;;;4981514;28;20407;-82
2023/11/15 03:46:17;;;;;;;5.00;1.05;;;11.10;1.00;;;;;;4965683;28;20725;-83
2023/11/15 03:48:43;;;;;;;2.70;1.20;;;11.30;1.00;;;;;;4967534;28;20399;-83
2023/11/15 03:51:08;;;;;;;2.60;0.98;;;11.30;1.00;;;;;;4975372;28;20373;-80
2023/11/15 03:53:36;;;;;;;6.20;1.00;;;12.50;1.00;;;;;;4975098;28;20401;-82
2023/11/15 03:56:02;;;;;;;6.63;1.73;;;11.40;1.00;;;;;;4968915;28;20433;-83
2023/11/15 03:58:28;;;;;;;1.88;0.77;;;11.50;1.00;;;;;;4969671;28;20427;-83
2023/11/15 04:00:56;;;;;;;3.07;0.80;;;11.20;1.00;;;;;;4985604;28;20392;-86
2023/11/15 04:03:22;;;;;;;2.42;0.90;;;11.20;1.00;;;;;;4967205;28;20396;-84
2023/11/15 04:05:47;;;;;;;3.70;1.20;;;11.30;1.00;;;;;;4983946;28;20388;-86
2023/11/15 04:08:13;;;;;;;3.10;0.90;;;11.40;1.00;;;;;;4966579;28;20419;-86
2023/11/15 04:10:38;;;;;;;2.50;1.00;;;11.20;1.00;;;;;;4983888;28;20399;-85
2023/11/15 04:13:04;;;;;;;1.95;0.80;;;11.30;1.00;;;;;;4964197;28;20838;-85
2023/11/15 04:15:29;;;;;;;3.90;0.90;;;11.30;1.00;;;;;;4966438;28;20412;-86
2023/11/15 04:17:56;;;;;;;2.50;0.90;;;11.30;1.00;;;;;;4983901;28;20431;-85
2023/11/15 04:20:22;;;;;;;1.30;0.80;;;11.40;1.00;;;;;;4984883;28;20391;-86
2023/11/15 04:22:47;;;;;;;1.70;0.80;;;11.50;1.00;;;;;;4982989;28;20388;-86
2023/11/15 04:25:13;;;;;;;2.30;0.90;;;12.60;1.00;;;;;;4983840;28;20403;-84
2023/11/15 04:27:38;;;;;;;4.22;0.90;;;11.30;1.00;;;;;;4966443;28;20400;-84
2023/11/15 04:30:04;;;;;;;2.92;1.00;;;11.10;1.00;;;;;;4984617;28;20384;-85
2023/11/15 04:32:30;;;;;;;2.65;1.10;;;11.30;1.00;;;;;;4974896;28;20423;-84
2023/11/15 04:34:56;;;;;;;1.73;1.00;;;11.40;1.00;;;;;;4972206;28;20419;-85
2023/11/15 04:37:24;;;;;;;2.30;0.95;;;10.60;1.00;;;;;;4986922;28;20424;-85
2023/11/15 04:39:49;;;;;;;3.72;0.95;;;11.10;1.00;;;;;;4983606;28;20392;-82
2023/11/15 04:42:18;;;;;;;2.13;1.02;;;11.30;1.00;;;;;;4970158;28;20407;-83
2023/11/15 04:44:45;;;;;;;2.95;0.90;;;11.30;1.00;;;;;;4975960;28;20419;-84
2023/11/15 04:47:11;;;;;;;1.52;0.73;;;11.20;1.00;;;;;;4994310;28;20400;-83
2023/11/15 04:49:37;;;;;;;4.80;1.90;;;11.20;1.00;;;;;;4977700;28;20459;-84
2023/11/15 04:52:02;;;;;;;3.92;0.80;;;11.20;1.00;;;;;;4993444;28;20407;-81
2023/11/15 04:54:28;;;;;;;4.27;1.20;;;11.30;1.00;;;;;;4996831;28;20415;-83
2023/11/15 04:56:54;;;;;;;1.53;0.70;;;11.20;1.00;;;;;;4982119;28;20443;-83
2023/11/15 04:59:19;;;;;;;3.70;0.80;;;11.20;1.00;;;;;;4998014;28;20396;-82
2023/11/15 05:01:45;;;;;;;1.67;0.50;;;11.00;1.00;;;;;;4998280;28;20392;-83
2023/11/15 05:04:14;;;;;;;3.45;0.80;;;11.20;1.00;;;;;;4981658;28;20775;-82
2023/11/15 05:06:40;;;;;;;2.10;0.75;;;11.10;1.00;;;;;;4981466;28;20408;-83
2023/11/15 05:09:06;;;;;;;2.35;0.70;;;10.90;1.00;;;;;;4998349;28;20399;-83
2023/11/15 05:11:31;;;;;;;1.80;0.90;;;11.20;1.00;;;;;;4998236;28;20431;-84
2023/11/15 05:13:57;;;;;;;0.97;0.50;;;11.20;1.00;;;;;;4998370;28;20399;-83
2023/11/15 05:16:22;;;;;;;1.93;0.70;;;11.20;1.00;;;;;;4999010;28;20451;-84
2023/11/15 05:18:48;;;;;;;3.40;1.00;;;11.30;1.00;;;;;;4994279;28;20459;-85
2023/11/15 05:21:14;;;;;;;1.33;0.70;;;12.00;1.00;;;;;;4997886;28;20400;-83
2023/11/15 05:23:39;;;;;;;2.78;0.70;;;10.80;1.00;;;;;;4998311;28;20400;-83
2023/11/15 05:26:06;;;;;;;1.53;0.60;;;11.30;1.00;;;;;;4996776;28;20388;-83
2023/11/15 05:28:32;;;;;;;1.20;0.70;;;11.30;1.00;;;;;;4971079;28;20392;-83
2023/11/15 05:30:57;;;;;;;0.90;0.50;;;11.20;1.00;;;;;;4984347;28;20412;-84
2023/11/15 05:33:23;;;;;;;2.47;0.77;;;11.10;1.00;;;;;;4992298;28;20392;-81
2023/11/15 05:35:49;;;;;;;2.20;0.70;;;;;;;;;;5000112;28;20407;-84
2023/11/15 05:38:14;;;;;;;1.88;0.50;;;11.10;1.00;;;;;;4999776;28;20387;-81
2023/11/15 05:40:40;;;;;;;1.50;0.60;;;10.90;1.00;;;;;;4997136;28;20889;-83
2023/11/15 05:43:07;;;;;;;2.40;0.60;;;10.80;1.00;;;;;;4985886;28;20472;-84
2023/11/15 05:45:32;;;;;;;1.10;0.80;;;10.80;1.00;;;;;;4963492;28;20760;-83
2023/11/15 05:47:58;;;;;;;2.03;0.70;;;10.50;1.00;;;;;;4963835;28;20392;-84
2023/11/15 05:50:24;;;;;;;4.33;0.83;;;10.40;1.00;;;;;;4981403;28;20886;-82
2023/11/15 05:52:50;;;;;;;3.50;0.90;;;10.30;1.00;;;;;;4993412;28;20441;-83
2023/11/15 05:55:15;;;;;;;1.77;0.93;;;9.80;1.00;;;;;;4979483;28;20522;-82
2023/11/15 05:57:41;;;;;;;3.77;1.40;;;10.20;1.00;;;;;;4959012;28;20400;-81
2023/11/15 06:00:20;;;;;;;4.43;1.00;;;11.80;1.00;;;;;;4959079;28;20384;-83
2023/11/15 06:02:49;;;;;;;4.43;0.82;;;10.20;1.00;;;;;;4960145;28;20388;-83
2023/11/15 06:05:16;;;;;;;3.97;1.10;;;10.20;1.00;;;;;;4960077;28;20397;-85
2023/11/15 06:07:41;;;;;;;5.95;1.10;;;10.30;1.00;;;;;;4960897;28;20403;-85
2023/11/15 06:10:08;;;;;;;5.30;1.30;;;9.90;1.00;;;;;;4978853;28;20885;-83
2023/11/15 06:12:40;;;;;;;4.00;1.30;;;10.20;1.00;;;;;;4961707;28;20424;-85
2023/11/15 06:15:10;;;;;;;3.60;1.10;;;9.90;1.00;;;;;;4995958;28;20411;-84
2023/11/15 06:17:36;;;;;;;3.03;1.35;;;9.90;1.00;;;;;;4989762;28;20398;-84
2023/11/15 06:20:02;;;;;;;5.30;1.80;;;12.90;1.00;;;;;;4988911;28;20396;-84
2023/11/15 06:22:28;;;;;;;3.30;1.47;;;9.90;1.00;;;;;;4968470;28;20392;-86
2023/11/15 06:24:53;;;;;;;3.90;1.77;;;12.20;1.00;;;;;;4981126;28;20396;-85
2023/11/15 06:27:19;;;;;;;3.80;1.53;;;9.90;1.00;;;;;;4964729;28;20432;-85
2023/11/15 06:29:49;;;;;;;2.80;1.20;;;10.00;1.00;;;;;;4968462;28;20404;-84
2023/11/15 06:32:15;;;;;;;6.28;1.23;;;9.70;1.00;;;;;;4966667;28;20474;-83
2023/11/15 06:34:44;;;;;;;4.57;1.40;;;9.70;1.00;;;;;;4964232;28;20412;-84
2023/11/15 06:37:13;;;;;;;2.38;1.10;;;9.90;1.00;;;;;;4963160;28;20393;-85
2023/11/15 06:39:43;;;;;;;2.83;1.50;;;9.90;1.00;;;;;;4963590;28;20465;-84
2023/11/15 06:42:10;;;;;;;7.75;1.27;;;9.70;1.00;;;;;;4962671;28;20396;-82
2023/11/15 06:44:38;;;;;;;4.78;1.20;;;9.70;1.00;;;;;;4960127;28;20420;-85
2023/11/15 06:47:06;;;;;;;5.10;1.42;;;9.60;1.00;;;;;;4960016;28;20494;-83
2023/11/15 06:49:32;;;;;;;5.95;1.60;;;9.90;1.00;;;;;;4979129;28;20800;-85
2023/11/15 06:51:57;;;;;;;3.22;1.40;;;9.80;1.00;;;;;;4963968;28;20388;-84
2023/11/15 06:54:23;;;;;;;5.40;1.90;;;9.70;1.00;;;;;;4980992;28;20760;-84
2023/11/15 06:56:48;;;;;;;5.43;1.47;;;9.30;1.00;;;;;;4964320;28;20411;-84
2023/11/15 06:59:15;;;;;;;5.77;1.53;;;9.90;1.00;;;;;;4978144;28;20396;-84
2023/11/15 07:01:41;;;;;;;5.85;1.50;;;9.70;1.00;;;;;;4977090;28;20396;-84
2023/11/15 07:04:06;;;;;;;6.17;2.10;;;9.90;1.00;;;;;;4978477;28;20467;-84
2023/11/15 07:06:32;;;;;;;4.70;1.90;;;9.60;1.00;;;;;;4976648;28;20404;-83
2023/11/15 07:08:59;;;;;;;3.70;2.27;;;10.10;1.00;;;;;;4959634;28;20400;-83
2023/11/15 07:11:25;;;;;;;4.65;1.52;;;10.10;1.00;;;;;;4976321;28;20443;-85
2023/11/15 07:13:50;;;;;;;2.97;1.20;;;9.80;1.00;;;;;;4960125;28;20403;-83
2023/11/15 07:16:16;;;;;;;3.90;1.60;;;9.90;1.00;;;;;;4992730;28;20424;-81
2023/11/15 07:18:42;;;;;;;4.10;1.10;;;10.10;1.00;;;;;;4983971;28;20419;-83
2023/11/15 07:21:08;;;;;;;6.60;1.42;;;10.00;1.00;;;;;;4981804;28;20395;-84
2023/11/15 07:23:34;;;;;;;5.60;1.50;;;9.50;1.00;;;;;;4965104;28;20400;-84
2023/11/15 07:26:01;;;;;;;5.60;2.00;;;10.00;1.00;;;;;;4981661;28;20419;-85
2023/11/15 07:28:27;;;;;;;2.85;1.10;;;10.10;1.00;;;;;;4964121;28;20392;-84
2023/11/15 07:30:55;;;;;;;4.68;1.90;;;10.00;1.00;;;;;;4965278;28;20395;-85
2023/11/15 07:33:21;;;;;;;6.32;1.98;;;10.00;1.00;;;;;;4981184;28;20454;-84
2023/11/15 07:35:49;;;;;;;5.47;1.60;;;10.30;1.00;;;;;;4962998;28;20416;-82
2023/11/15 07:38:16;;;;;;;5.60;1.40;;;10.20;1.00;;;;;;4962603;28;20423;-84
2023/11/15 07:40:42;;;;;;;5.35;1.85;;;10.00;1.00;;;;;;4961732;28;20400;-85
2023/11/15 07:43:08;;;;;;;6.43;1.70;;;10.10;1.00;;;;;;4961649;28;20396;-83
2023/11/15 07:45:35;;;;;;;4.97;1.50;;;9.70;1.00;;;;;;4978962;28;20462;-83
2023/11/15 07:48:01;;;;;;;8.13;1.55;;;10.00;1.00;;;;;;4963374;28;20888;-83
2023/11/15 07:50:28;;;;;;;3.38;1.60;;;9.70;1.00;;;;;;4962792;28;20495;-84
2023/11/15 07:52:53;;;;;;;6.22;1.45;;;10.30;1.00;;;;;;4961891;28;20393;-84
2023/11/15 07:55:19;;;;;;;4.20;1.50;;;10.10;1.00;;;;;;4962566;28;20411;-84
2023/11/15 07:57:45;;;;;;;4.93;1.40;;;10.40;1.00;;;;;;4968366;28;20392;-80
2023/11/15 08:00:11;;;;;;;5.30;1.53;;;;;;;;;;4997864;28;20631;-81
2023/11/15 08:02:37;;;;;;;4.07;1.60;;;10.30;1.00;;;;;;4997875;28;20388;-83
2023/11/15 08:05:07;;;;;;;3.67;1.65;;;10.20;1.00;;;;;;4986705;28;20413;-83
2023/11/15 08:07:36;;;;;;;5.13;1.90;;;10.40;1.00;;;;;;4983542;28;20500;-84
2023/11/15 08:10:02;;;;;;;6.70;2.40;;;10.00;1.00;;;;;;4965207;28;20738;-84
2023/11/15 08:12:35;;;;;;;5.35;2.30;;;;;;;;;;4980678;28;20408;-84
2023/11/15 08:15:02;;;;;;;7.97;2.10;;;10.40;1.00;;;;;;4977575;28;20407;-84
2023/11/15 08:17:27;;;;;;;5.30;2.00;;;10.30;1.00;;;;;;4982998;23;20439;-86
2023/11/15 08:19:54;;;;;;;5.63;2.17;;;9.40;1.00;;;;;;4977091;28;20426;-86
2023/11/15 08:22:21;;;;;;;4.43;1.88;;;10.20;1.00;;;;;;4979096;28;20383;-86
2023/11/15 08:24:46;;;;;;;6.07;1.73;;;10.30;1.00;;;;;;4996824;28;20387;-87
2023/11/15 08:27:12;;;;;;;10.38;2.58;;;10.20;1.00;;;;;;4979492;28;20389;-87
2023/11/15 08:29:38;;;;;;;6.78;2.20;;;10.40;1.00;;;;;;4982860;28;20923;-86
2023/11/15 08:32:04;;;;;;;5.90;1.88;;;10.30;1.00;;;;;;4984373;28;20782;-85
2023/11/15 08:34:30;;;;;;;5.87;1.67;;;10.40;1.00;;;;;;5000977;28;20469;-86
2023/11/15 08:36:56;;;;;;;4.80;1.95;;;10.20;1.00;;;;;;5002071;28;20541;-86
2023/11/15 08:39:22;;;;;;;5.25;1.80;;;10.50;1.00;;;;;;4983395;28;20945;-86
2023/11/15 08:41:48;;;;;;;5.93;2.10;;;10.50;1.00;;;;;;5000655;28;20472;-86
2023/11/15 08:44:14;;;;;;;5.37;1.90;;;10.50;1.00;;;;;;4983688;28;20425;-86
2023/11/15 08:46:44;;;;;;;4.40;1.50;;;;;;;;;;4982741;28;20408;-86
2023/11/15 08:49:12;;;;;;;5.93;2.00;;;10.60;1.00;;;;;;4984628;28;20894;-87
2023/11/15 08:51:37;;;;;;;5.00;1.50;;;10.70;1.00;;;;;;4989084;28;20453;-85
2023/11/15 08:54:03;;;;;;;7.25;1.60;;;;;;;;;;4996536;28;20386;-85
2023/11/15 08:56:31;;;;;;;5.22;1.83;;;10.80;1.00;;;;;;5003717;28;20410;-85
2023/11/15 08:58:59;;;;;;;4.53;1.80;;;10.80;1.00;;;;;;5003788;28;20398;-85
2023/11/15 09:01:24;;;;;;;4.57;1.80;;;10.50;1.00;;;;;;5020594;28;20404;-85
2023/11/15 09:03:50;;;;;;;6.53;1.57;;;11.00;1.00;;;;;;5020289;28;20382;-85
2023/11/15 09:06:16;;;;;;;5.15;1.48;;;10.90;1.00;;;;;;5020317;28;20454;-86
2023/11/15 09:08:41;;;;;;;6.45;1.60;;;10.90;1.00;;;;;;5020292;28;20450;-87
2023/11/15 09:11:08;;;;;;;7.03;1.60;;;11.00;1.00;;;;;;5003565;28;20394;-86
2023/11/15 09:13:33;;;;;;;5.18;1.70;;;10.90;1.00;;;;;;5020442;28;20396;-86
2023/11/15 09:15:59;;;;;;;2.77;1.40;;;11.00;1.00;;;;;;5020409;28;20402;-86
2023/11/15 09:18:25;;;;;;;5.55;2.10;;;11.20;1.00;;;;;;5003525;28;20481;-85
2023/11/15 09:20:52;;;;;;;6.70;1.63;;;11.10;1.00;;;;;;5003812;28;20592;-84
2023/11/15 09:23:17;;;;;;;7.00;1.90;;;11.10;1.00;;;;;;5020353;28;20413;-83
2023/11/15 09:25:43;;;;;;;4.28;1.50;;;11.10;1.00;;;;;;5020515;28;20399;-84
2023/11/15 09:28:14;;;;;;;7.05;1.60;;;11.30;1.00;;;;;;5003503;28;20391;-85
2023/11/15 09:30:40;;;;;;;5.50;1.50;;;;;;;;;;5003441;28;20402;-84
2023/11/15 09:33:05;;;;;;;4.13;1.25;;;11.30;1.00;;;;;;5003302;28;20409;-83
2023/11/15 09:35:34;;;;;;;5.40;1.50;;;11.10;1.00;;;;;;5002948;28;20422;-85
2023/11/15 09:38:00;;;;;;;4.93;1.55;;;11.20;1.00;;;;;;5003391;28;20383;-85
2023/11/15 09:40:26;;;;;;;6.50;1.50;;;11.30;1.00;;;;;;5019790;28;20398;-85
2023/11/15 09:42:53;;;;;;;5.70;1.90;;;11.30;1.00;;;;;;5002843;28;20545;-84
2023/11/15 09:45:23;;;;;;;4.05;1.30;;;11.30;1.00;;;;;;5002777;28;20419;-83
2023/11/15 09:47:50;;;;;;;8.93;1.53;;;11.30;1.00;;;;;;5003321;28;20386;-84
2023/11/15 09:50:23;;;;;;;4.43;1.10;;;11.40;1.00;;;;;;5003400;28;20398;-83
2023/11/15 09:52:51;;;;;;;5.00;1.20;;;10.90;1.00;;;;;;5003015;28;20469;-82
2023/11/15 09:55:21;;;;;;;4.78;1.50;;;11.40;1.00;;;;;;5002934;28;20420;-83
2023/11/15 09:57:49;;;;;;;5.22;1.40;;;11.20;1.00;;;;;;5002247;28;20407;-82
2023/11/15 10:00:16;;;;;;;4.10;1.35;;;11.60;1.00;;;;;;5019551;28;20418;-83
2023/11/15 10:02:42;;;;;;;4.88;1.30;;;11.60;1.00;;;;;;5002477;28;20402;-83
2023/11/15 10:05:18;;;;;;;6.25;1.58;;;11.40;1.00;;;;;;5002685;28;20393;-83
2023/11/15 10:07:45;;;;;;;6.85;1.63;;;11.70;1.00;;;;;;5002590;28;20383;-84
2023/11/15 10:10:38;;;;;;;5.53;1.45;;;11.60;1.00;;;;;;4998971;28;20477;-83
2023/11/15 10:13:19;;;;;;;5.22;2.17;;;11.60;1.00;;;;;;5000281;28;20398;-84
2023/11/15 10:15:46;;;;;;;5.93;1.50;;;11.70;1.00;;;;;;4999545;28;20469;-85
2023/11/15 10:18:18;;;;;;;4.88;1.70;;;11.70;1.00;;;;;;4998249;28;20425;-84
2023/11/15 10:20:44;;;;;;;5.18;1.33;;;10.80;1.00;;;;;;4998256;28;20799;-86
2023/11/15 10:23:11;;;;;;;4.20;1.20;;;11.80;1.00;;;;;;4979532;28;20397;-84
2023/11/15 10:25:55;;;;;;;4.78;1.30;;;11.70;1.00;;;;;;4997206;28;20387;-84
2023/11/15 10:28:21;;;;;;;4.03;1.27;;;12.20;1.00;;;;;;5012765;28;20410;-84
2023/11/15 10:31:07;;;;;;;4.60;1.30;;;12.10;1.00;;;;;;5016643;28;20426;-83
2023/11/15 10:33:34;;;;;;;3.50;1.50;;;12.10;1.00;;;;;;5017037;28;20900;-83
2023/11/15 10:36:22;;;;;;;3.00;1.30;;;11.90;1.00;;;;;;5016756;28;20442;-85
2023/11/15 10:38:58;;;;;;;4.78;1.48;;;11.90;1.00;;;;;;5005121;28;20394;-85
2023/11/15 10:41:25;;;;;;;6.30;1.80;;;11.80;1.00;;;;;;4986375;28;20477;-85
2023/11/15 10:43:52;;;;;;;4.43;1.30;;;11.60;1.00;;;;;;4985367;28;20943;-85
2023/11/15 10:46:26;;;;;;;3.88;1.80;;;11.70;1.00;;;;;;4983935;28;20395;-87
2023/11/15 10:48:56;;;;;;;5.43;1.90;;;11.80;1.00;;;;;;4999704;28;20394;-84
2023/11/15 10:51:23;;;;;;;3.10;1.55;;;11.40;1.00;;;;;;4998519;28;20386;-84
2023/11/15 10:53:50;;;;;;;5.68;1.80;;;11.60;1.00;;;;;;4982647;28;20386;-84
2023/11/15 10:56:17;;;;;;;4.38;1.38;;;11.60;1.00;;;;;;4998836;28;20406;-83
2023/11/15 10:58:47;;;;;;;5.00;1.52;;;11.60;1.00;;;;;;4981319;28;20402;-84
2023/11/15 11:01:16;;;;;;;3.10;1.40;;;11.60;1.00;;;;;;4998095;28;20401;-84
2023/11/15 11:03:51;;;;;;;4.45;1.50;;;11.70;1.00;;;;;;4989031;28;20398;-83
2023/11/15 11:06:29;;;;;;;5.22;1.40;;;11.80;1.00;;;;;;5005324;28;20410;-84
2023/11/15 11:09:02;;;;;;;5.03;1.00;;;12.50;1.00;;;;;;4998177;28;20958;-84
2023/11/15 11:11:59;;;;;;;4.93;1.50;;;12.90;1.00;;;;;;5009589;28;20483;-83
2023/11/15 11:14:26;;;;;;;3.42;1.30;;;;;;;;;;4996810;28;20456;-84
2023/11/15 11:16:53;;;;;;;3.97;1.20;;;12.40;1.00;;;;;;4998173;28;20457;-85
2023/11/15 11:19:23;;;;;;;4.68;1.45;;;12.50;1.00;;;;;;4997706;28;20794;-85
2023/11/15 11:22:05;;;;;;;2.77;1.20;;;11.80;1.00;;;;;;4984465;28;20458;-85
2023/11/15 11:24:32;;;;;;;4.60;1.40;;;11.80;1.00;;;;;;4982395;28;20595;-85
2023/11/15 11:27:14;;;;;;;2.92;1.00;;;12.70;1.00;;;;;;4980536;28;21062;-85
2023/11/15 11:29:51;;;;;;;3.80;1.27;;;13.50;1.00;;;;;;4981099;28;20798;-85
2023/11/15 11:32:26;;;;;;;2.58;1.30;;;14.60;1.00;;;;;;5001544;28;20390;-85
2023/11/15 11:35:04;;;;;;;2.40;0.90;;;13.20;1.00;;;;;;4979306;28;20410;-84
2023/11/15 11:37:44;;;;;;;2.58;0.95;;;14.40;1.00;;;;;;4978068;28;20456;-86
2023/11/15 11:40:13;;;;;;;2.00;0.80;;;14.10;1.00;;;;;;4997319;28;20389;-87
2023/11/15 11:42:43;;;;;;;2.35;1.20;;;14.90;1.00;;;;;;4981657;28;20406;-84
2023/11/15 11:45:14;;;;;;;2.22;0.70;;;15.00;1.00;;;;;;4999728;28;20449;-85
2023/11/15 11:47:41;;;;;;;2.65;1.00;;;14.90;1.00;;;;;;4998253;28;20916;-83
2023/11/15 11:50:07;;;;;;;2.80;1.30;;;14.50;1.00;;;;;;5016475;28;20392;-85
2023/11/15 11:52:34;;;;;;;5.30;0.90;;;15.20;1.00;;;;;;4999942;28;20393;-84
2023/11/15 11:55:01;;;;;;;2.20;0.70;;;15.30;1.00;;;;;;5018865;28;20417;-84
2023/11/15 11:57:30;;;;;;;3.50;0.90;;;15.60;1.00;;;;;;5003660;28;20384;-83
2023/11/15 12:00:18;;;;;;;2.25;1.00;;;15.40;1.00;;;;;;5021543;28;20420;-84
2023/11/15 12:02:45;;;;;;;1.88;1.00;;;15.60;1.00;;;;;;5016418;28;20447;-83
2023/11/15 12:05:12;;;;;;;1.50;0.90;;;15.70;1.00;;;;;;4998472;28;20495;-85
2023/11/15 12:07:46;;;;;;;3.60;1.00;;;15.30;1.00;;;;;;4998302;28;20507;-85
2023/11/15 12:10:13;;;;;;;3.50;1.63;;;15.50;1.00;;;;;;5016288;28;20388;-83
2023/11/15 12:12:41;;;;;;;2.03;0.88;;;14.70;1.00;;;;;;5014954;28;20463;-85
2023/11/15 12:15:13;;;;;;;2.35;1.00;;;13.20;1.00;;;;;;4996832;28;20806;-83
2023/11/15 12:17:39;;;;;;;2.27;0.80;;;13.10;1.00;;;;;;5009769;28;20419;-82
2023/11/15 12:20:13;;;;;;;4.50;1.37;;;12.90;1.00;;;;;;5011460;28;20452;-87
2023/11/15 12:22:43;;;;;;;4.18;1.30;;;13.00;1.00;;;;;;4983936;28;20399;-83
2023/11/15 12:25:16;;;;;;;3.78;1.30;;;12.80;1.00;;;;;;4991285;28;20387;-86
2023/11/15 12:27:43;;;;;;;2.08;0.80;;;12.70;1.00;;;;;;4983105;28;20893;-84
2023/11/15 12:30:10;;;;;;;2.50;1.13;;;12.70;1.00;;;;;;4999021;28;20386;-85
2023/11/15 12:32:37;;;;;;;1.70;0.90;;;12.70;1.00;;;;;;4990922;28;20413;-82
2023/11/15 12:35:08;;;;;;;2.03;1.00;;;12.70;1.00;;;;;;4992763;28;20441;-87
2023/11/15 12:37:35;;;;;;;3.60;1.20;;;12.60;1.00;;;;;;5027081;28;20377;-83
2023/11/15 12:40:15;;;;;;;2.60;1.10;;;12.30;1.00;;;;;;5005957;28;20616;-85
2023/11/15 12:42:43;;;;;;;2.70;1.10;;;12.60;1.00;;;;;;5005682;28;20405;-86
2023/11/15 12:45:27;;;;;;;2.95;1.00;;;12.60;1.00;;;;;;5022377;28;20385;-84
2023/11/15 12:48:02;;;;;;;2.90;0.87;;;12.90;1.00;;;;;;5001510;28;20411;-83
2023/11/15 12:50:28;;;;;;;2.40;1.00;;;12.70;1.00;;;;;;5022772;28;20384;-84
2023/11/15 12:53:01;;;;;;;4.77;1.50;;;12.90;1.00;;;;;;5009626;28;20411;-83
2023/11/15 12:55:49;;;;;;;5.35;1.20;;;12.40;1.00;;;;;;5015717;28;20389;-85
2023/11/15 12:58:28;;;;;;;2.55;0.93;;;12.80;1.00;;;;;;5036013;28;20392;-84
2023/11/15 13:01:00;;;;;;;3.15;1.10;;;12.80;1.00;;;;;;5036754;28;20381;-86
2023/11/15 13:03:32;;;;;;;2.70;0.90;;;12.60;1.00;;;;;;5036215;28;20494;-82